sensor_id;sensor_type;location;lat;lon;timestamp;pressure;altitude;pressure_sealevel;temperature;humidity
6218;BME280;3142;48.206;11.550;2022-08-19T00:01:48;95252.97;;;22.02;72.87
6218;BME280;3142;48.206;11.550;2022-08-19T00:04:17;95264.97;;;21.99;72.88
6218;BME280;3142;48.206;11.550;2022-08-19T00:06:45;95273.25;;;21.98;72.83
6218;BME280;3142;48.206;11.550;2022-08-19T00:09:15;95277.38;;;21.85;73.44
6218;BME280;3142;48.206;11.550;2022-08-19T00:11:44;95267.53;;;21.85;73.67
6218;BME280;3142;48.206;11.550;2022-08-19T00:14:12;95258.44;;;21.86;73.55
6218;BME280;3142;48.206;11.550;2022-08-19T00:16:41;95268.78;;;21.93;73.13
6218;BME280;3142;48.206;11.550;2022-08-19T00:19:08;95276.22;;;21.96;73.26
6218;BME280;3142;48.206;11.550;2022-08-19T00:21:35;95269.03;;;21.92;73.22
6218;BME280;3142;48.206;11.550;2022-08-19T00:24:04;95257.06;;;21.94;73.37
6218;BME280;3142;48.206;11.550;2022-08-19T00:26:30;95244.53;;;21.95;73.40
6218;BME280;3142;48.206;11.550;2022-08-19T00:28:58;95236.97;;;22.02;73.03
6218;BME280;3142;48.206;11.550;2022-08-19T00:31:25;95237.97;;;22.11;73.11
6218;BME280;3142;48.206;11.550;2022-08-19T00:33:53;95227.53;;;22.14;72.88
6218;BME280;3142;48.206;11.550;2022-08-19T00:36:19;95218.47;;;22.15;72.90
6218;BME280;3142;48.206;11.550;2022-08-19T00:38:46;95216.59;;;22.16;72.78
6218;BME280;3142;48.206;11.550;2022-08-19T00:41:13;95223.56;;;22.12;72.52
6218;BME280;3142;48.206;11.550;2022-08-19T00:43:41;95229.47;;;22.09;72.72
6218;BME280;3142;48.206;11.550;2022-08-19T00:46:09;95224.94;;;22.09;72.58
6218;BME280;3142;48.206;11.550;2022-08-19T00:48:35;95224.44;;;22.07;72.47
6218;BME280;3142;48.206;11.550;2022-08-19T00:51:04;95219.13;;;22.02;72.90
6218;BME280;3142;48.206;11.550;2022-08-19T00:53:32;95209.75;;;22.05;72.87
6218;BME280;3142;48.206;11.550;2022-08-19T00:55:59;95197.00;;;22.02;72.79
6218;BME280;3142;48.206;11.550;2022-08-19T00:58:30;95193.25;;;22.03;72.90
6218;BME280;3142;48.206;11.550;2022-08-19T01:00:58;95196.72;;;22.03;72.81
6218;BME280;3142;48.206;11.550;2022-08-19T01:03:27;95200.25;;;21.99;72.74
6218;BME280;3142;48.206;11.550;2022-08-19T01:05:54;95208.81;;;21.96;72.99
6218;BME280;3142;48.206;11.550;2022-08-19T01:08:22;95206.75;;;21.87;73.24
6218;BME280;3142;48.206;11.550;2022-08-19T01:10:52;95198.47;;;21.89;73.13
6218;BME280;3142;48.206;11.550;2022-08-19T01:13:22;95196.59;;;21.89;73.31
6218;BME280;3142;48.206;11.550;2022-08-19T01:15:52;95195.03;;;21.88;73.35
6218;BME280;3142;48.206;11.550;2022-08-19T01:18:20;95190.28;;;21.85;73.35
6218;BME280;3142;48.206;11.550;2022-08-19T01:20:48;95196.03;;;21.93;73.20
6218;BME280;3142;48.206;11.550;2022-08-19T01:23:16;95196.59;;;21.89;73.43
6218;BME280;3142;48.206;11.550;2022-08-19T01:25:45;95199.78;;;21.92;73.44
6218;BME280;3142;48.206;11.550;2022-08-19T01:28:17;95198.94;;;21.96;73.19
6218;BME280;3142;48.206;11.550;2022-08-19T01:30:45;95194.44;;;21.92;73.29
6218;BME280;3142;48.206;11.550;2022-08-19T01:33:12;95198.97;;;21.91;73.46
6218;BME280;3142;48.206;11.550;2022-08-19T01:35:40;95193.94;;;21.89;73.60
6218;BME280;3142;48.206;11.550;2022-08-19T01:38:09;95203.53;;;21.91;73.48
6218;BME280;3142;48.206;11.550;2022-08-19T01:40:46;95217.69;;;21.86;73.50
6218;BME280;3142;48.206;11.550;2022-08-19T01:43:12;95218.56;;;21.81;73.69
6218;BME280;3142;48.206;11.550;2022-08-19T01:45:39;95217.75;;;21.81;73.70
6218;BME280;3142;48.206;11.550;2022-08-19T01:48:06;95228.50;;;21.71;73.86
6218;BME280;3142;48.206;11.550;2022-08-19T01:50:34;95229.53;;;21.75;74.02
6218;BME280;3142;48.206;11.550;2022-08-19T01:53:03;95227.44;;;21.72;74.01
6218;BME280;3142;48.206;11.550;2022-08-19T01:55:30;95240.47;;;21.73;74.04
6218;BME280;3142;48.206;11.550;2022-08-19T01:58:02;95236.44;;;21.76;74.01
6218;BME280;3142;48.206;11.550;2022-08-19T02:00:30;95243.34;;;21.77;73.89
6218;BME280;3142;48.206;11.550;2022-08-19T02:02:57;95243.59;;;21.80;73.69
6218;BME280;3142;48.206;11.550;2022-08-19T02:05:24;95225.28;;;21.74;73.94
6218;BME280;3142;48.206;11.550;2022-08-19T02:07:51;95228.72;;;21.74;74.09
6218;BME280;3142;48.206;11.550;2022-08-19T02:10:20;95226.06;;;21.74;74.18
6218;BME280;3142;48.206;11.550;2022-08-19T02:12:47;95233.25;;;21.74;74.12
6218;BME280;3142;48.206;11.550;2022-08-19T02:15:16;95244.50;;;21.71;74.00
6218;BME280;3142;48.206;11.550;2022-08-19T02:17:44;95247.44;;;21.69;74.29
6218;BME280;3142;48.206;11.550;2022-08-19T02:20:11;95261.56;;;21.65;74.62
6218;BME280;3142;48.206;11.550;2022-08-19T02:22:38;95265.09;;;21.60;74.71
6218;BME280;3142;48.206;11.550;2022-08-19T02:25:07;95263.00;;;21.57;74.71
6218;BME280;3142;48.206;11.550;2022-08-19T02:27:34;95263.28;;;21.55;74.94
6218;BME280;3142;48.206;11.550;2022-08-19T02:30:01;95260.09;;;21.53;75.00
6218;BME280;3142;48.206;11.550;2022-08-19T02:32:28;95267.81;;;21.55;74.95
6218;BME280;3142;48.206;11.550;2022-08-19T02:34:56;95265.72;;;21.47;75.04
6218;BME280;3142;48.206;11.550;2022-08-19T02:37:22;95268.44;;;21.42;75.23
6218;BME280;3142;48.206;11.550;2022-08-19T02:40:07;95265.72;;;21.47;75.11
6218;BME280;3142;48.206;11.550;2022-08-19T02:42:33;95266.34;;;21.39;75.08
6218;BME280;3142;48.206;11.550;2022-08-19T02:45:00;95259.16;;;21.39;75.05
6218;BME280;3142;48.206;11.550;2022-08-19T02:47:27;95250.59;;;21.42;74.81
6218;BME280;3142;48.206;11.550;2022-08-19T02:49:54;95235.94;;;21.45;74.85
6218;BME280;3142;48.206;11.550;2022-08-19T02:52:21;95212.25;;;21.43;74.67
6218;BME280;3142;48.206;11.550;2022-08-19T02:54:48;95208.22;;;21.46;74.55
6218;BME280;3142;48.206;11.550;2022-08-19T02:57:14;95192.03;;;21.42;74.74
6218;BME280;3142;48.206;11.550;2022-08-19T02:59:41;95194.41;;;21.44;74.51
6218;BME280;3142;48.206;11.550;2022-08-19T03:02:08;95202.91;;;21.46;74.52
6218;BME280;3142;48.206;11.550;2022-08-19T03:04:34;95196.00;;;21.45;74.54
6218;BME280;3142;48.206;11.550;2022-08-19T03:07:02;95200.59;;;21.39;74.55
6218;BME280;3142;48.206;11.550;2022-08-19T03:09:29;95202.41;;;21.44;74.41
6218;BME280;3142;48.206;11.550;2022-08-19T03:11:55;95195.13;;;21.54;74.20
6218;BME280;3142;48.206;11.550;2022-08-19T03:14:22;95206.78;;;21.58;73.95
6218;BME280;3142;48.206;11.550;2022-08-19T03:16:50;95216.31;;;21.65;73.70
6218;BME280;3142;48.206;11.550;2022-08-19T03:19:18;95221.91;;;21.63;73.96
6218;BME280;3142;48.206;11.550;2022-08-19T03:21:47;95217.94;;;21.61;74.10
6218;BME280;3142;48.206;11.550;2022-08-19T03:24:16;95213.63;;;21.65;73.81
6218;BME280;3142;48.206;11.550;2022-08-19T03:26:46;95220.81;;;21.69;73.69
6218;BME280;3142;48.206;11.550;2022-08-19T03:29:13;95237.06;;;21.68;73.69
6218;BME280;3142;48.206;11.550;2022-08-19T03:31:41;95246.94;;;21.62;73.77
6218;BME280;3142;48.206;11.550;2022-08-19T03:34:09;95240.03;;;21.61;73.63
6218;BME280;3142;48.206;11.550;2022-08-19T03:36:37;95236.81;;;21.64;73.61
6218;BME280;3142;48.206;11.550;2022-08-19T03:39:04;95230.25;;;21.56;73.92
6218;BME280;3142;48.206;11.550;2022-08-19T03:41:36;95235.34;;;21.53;74.20
6218;BME280;3142;48.206;11.550;2022-08-19T03:44:04;95230.75;;;21.58;74.01
6218;BME280;3142;48.206;11.550;2022-08-19T03:46:32;95236.34;;;21.57;74.10
6218;BME280;3142;48.206;11.550;2022-08-19T03:49:00;95233.50;;;21.48;74.40
6218;BME280;3142;48.206;11.550;2022-08-19T03:51:30;95237.22;;;21.52;74.36
6218;BME280;3142;48.206;11.550;2022-08-19T03:53:59;95225.16;;;21.60;74.22
6218;BME280;3142;48.206;11.550;2022-08-19T03:56:26;95230.19;;;21.62;74.26
6218;BME280;3142;48.206;11.550;2022-08-19T03:58:57;95225.91;;;21.66;74.54
6218;BME280;3142;48.206;11.550;2022-08-19T04:01:27;95226.41;;;21.68;74.02
6218;BME280;3142;48.206;11.550;2022-08-19T04:03:56;95224.28;;;21.65;74.10
6218;BME280;3142;48.206;11.550;2022-08-19T04:06:25;95225.66;;;21.62;74.26
6218;BME280;3142;48.206;11.550;2022-08-19T04:08:54;95229.38;;;21.66;73.87
6218;BME280;3142;48.206;11.550;2022-08-19T04:11:23;95220.84;;;21.64;74.15
6218;BME280;3142;48.206;11.550;2022-08-19T04:13:52;95220.03;;;21.64;74.34
6218;BME280;3142;48.206;11.550;2022-08-19T04:16:21;95215.00;;;21.62;74.40
6218;BME280;3142;48.206;11.550;2022-08-19T04:18:48;95216.88;;;21.62;74.34
6218;BME280;3142;48.206;11.550;2022-08-19T04:21:17;95218.22;;;21.59;74.63
6218;BME280;3142;48.206;11.550;2022-08-19T04:23:44;95221.69;;;21.59;74.37
6218;BME280;3142;48.206;11.550;2022-08-19T04:26:12;95220.31;;;21.62;74.24
6218;BME280;3142;48.206;11.550;2022-08-19T04:28:41;95212.59;;;21.66;74.35
6218;BME280;3142;48.206;11.550;2022-08-19T04:31:13;95218.13;;;21.69;74.11
6218;BME280;3142;48.206;11.550;2022-08-19T04:33:41;95221.63;;;21.65;74.44
6218;BME280;3142;48.206;11.550;2022-08-19T04:36:14;95230.16;;;21.67;74.46
6218;BME280;3142;48.206;11.550;2022-08-19T04:38:41;95236.56;;;21.66;74.45
6218;BME280;3142;48.206;11.550;2022-08-19T04:41:08;95241.59;;;21.67;74.59
6218;BME280;3142;48.206;11.550;2022-08-19T04:43:48;95246.13;;;21.67;74.56
6218;BME280;3142;48.206;11.550;2022-08-19T04:46:15;95250.66;;;21.66;74.50
6218;BME280;3142;48.206;11.550;2022-08-19T04:48:43;95248.53;;;21.63;74.50
6218;BME280;3142;48.206;11.550;2022-08-19T04:51:11;95252.56;;;21.61;74.63
6218;BME280;3142;48.206;11.550;2022-08-19T04:53:40;95257.66;;;21.57;74.62
6218;BME280;3142;48.206;11.550;2022-08-19T04:56:09;95268.81;;;21.59;74.90
6218;BME280;3142;48.206;11.550;2022-08-19T04:58:36;95278.97;;;21.57;75.00
6218;BME280;3142;48.206;11.550;2022-08-19T05:01:03;95272.84;;;21.56;74.75
6218;BME280;3142;48.206;11.550;2022-08-19T05:03:30;95278.75;;;21.53;74.85
6218;BME280;3142;48.206;11.550;2022-08-19T05:06:04;95279.03;;;21.52;75.07
6218;BME280;3142;48.206;11.550;2022-08-19T05:08:34;95287.00;;;21.52;75.39
6218;BME280;3142;48.206;11.550;2022-08-19T05:11:01;95283.00;;;21.49;75.08
6218;BME280;3142;48.206;11.550;2022-08-19T05:13:33;95292.13;;;21.43;75.24
6218;BME280;3142;48.206;11.550;2022-08-19T05:15:59;95292.16;;;21.38;75.48
6218;BME280;3142;48.206;11.550;2022-08-19T05:18:26;95302.25;;;21.41;75.66
6218;BME280;3142;48.206;11.550;2022-08-19T05:21:13;95296.94;;;21.36;75.28
6218;BME280;3142;48.206;11.550;2022-08-19T05:23:57;95294.00;;;21.38;75.45
6218;BME280;3142;48.206;11.550;2022-08-19T05:26:24;95296.94;;;21.36;75.47
6218;BME280;3142;48.206;11.550;2022-08-19T05:28:51;95294.84;;;21.38;75.40
6218;BME280;3142;48.206;11.550;2022-08-19T05:31:18;95289.75;;;21.42;75.49
6218;BME280;3142;48.206;11.550;2022-08-19T05:33:45;95285.72;;;21.44;75.52
6218;BME280;3142;48.206;11.550;2022-08-19T05:36:13;95271.34;;;21.45;75.32
6218;BME280;3142;48.206;11.550;2022-08-19T05:38:40;95273.25;;;21.40;75.51
6218;BME280;3142;48.206;11.550;2022-08-19T05:41:08;95274.00;;;21.45;75.49
6218;BME280;3142;48.206;11.550;2022-08-19T05:43:35;95274.00;;;21.45;74.70
6218;BME280;3142;48.206;11.550;2022-08-19T05:46:02;95271.41;;;21.35;75.82
6218;BME280;3142;48.206;11.550;2022-08-19T05:48:29;95268.66;;;21.45;75.38
6218;BME280;3142;48.206;11.550;2022-08-19T05:50:56;95270.47;;;21.55;75.12
6218;BME280;3142;48.206;11.550;2022-08-19T05:53:25;95271.19;;;21.61;74.81
6218;BME280;3142;48.206;11.550;2022-08-19T05:55:51;95274.88;;;21.65;74.77
6218;BME280;3142;48.206;11.550;2022-08-19T05:58:18;95269.03;;;21.68;74.30
6218;BME280;3142;48.206;11.550;2022-08-19T06:00:44;95267.66;;;21.70;74.23
6218;BME280;3142;48.206;11.550;2022-08-19T06:03:11;95272.75;;;21.67;74.21
6218;BME280;3142;48.206;11.550;2022-08-19T06:05:37;95276.75;;;21.64;74.34
6218;BME280;3142;48.206;11.550;2022-08-19T06:08:03;95273.59;;;21.62;74.62
6218;BME280;3142;48.206;11.550;2022-08-19T06:10:33;95275.69;;;21.65;74.20
6218;BME280;3142;48.206;11.550;2022-08-19T06:13:00;95270.09;;;21.67;74.16
6218;BME280;3142;48.206;11.550;2022-08-19T06:15:27;95276.50;;;21.66;73.98
6218;BME280;3142;48.206;11.550;2022-08-19T06:17:54;95286.34;;;21.65;74.11
6218;BME280;3142;48.206;11.550;2022-08-19T06:20:20;95288.75;;;21.67;74.19
6218;BME280;3142;48.206;11.550;2022-08-19T06:22:48;95291.19;;;21.58;74.68
6218;BME280;3142;48.206;11.550;2022-08-19T06:25:16;95290.91;;;21.59;74.32
6218;BME280;3142;48.206;11.550;2022-08-19T06:27:45;95290.34;;;21.63;74.47
6218;BME280;3142;48.206;11.550;2022-08-19T06:30:12;95296.19;;;21.65;74.54
6218;BME280;3142;48.206;11.550;2022-08-19T06:32:39;95287.75;;;21.57;74.56
6218;BME280;3142;48.206;11.550;2022-08-19T06:35:06;95278.41;;;21.60;74.45
6218;BME280;3142;48.206;11.550;2022-08-19T06:37:33;95285.53;;;21.65;74.60
6218;BME280;3142;48.206;11.550;2022-08-19T06:39:59;95279.97;;;21.66;74.58
6218;BME280;3142;48.206;11.550;2022-08-19T06:42:26;95287.94;;;21.66;74.50
6218;BME280;3142;48.206;11.550;2022-08-19T06:44:53;95289.00;;;21.65;74.38
6218;BME280;3142;48.206;11.550;2022-08-19T06:47:21;95288.75;;;21.67;74.34
6218;BME280;3142;48.206;11.550;2022-08-19T06:49:47;95287.41;;;21.64;74.40
6218;BME280;3142;48.206;11.550;2022-08-19T06:52:14;95293.28;;;21.66;74.66
6218;BME280;3142;48.206;11.550;2022-08-19T06:54:41;95291.16;;;21.63;74.62
6218;BME280;3142;48.206;11.550;2022-08-19T06:57:08;95292.22;;;21.62;74.65
6218;BME280;3142;48.206;11.550;2022-08-19T06:59:38;95288.53;;;21.58;74.68
6218;BME280;3142;48.206;11.550;2022-08-19T07:02:07;95285.31;;;21.61;74.58
6218;BME280;3142;48.206;11.550;2022-08-19T07:04:35;95277.31;;;21.61;74.50
6218;BME280;3142;48.206;11.550;2022-08-19T07:07:05;95281.28;;;21.64;74.11
6218;BME280;3142;48.206;11.550;2022-08-19T07:09:33;95289.28;;;21.64;74.15
6218;BME280;3142;48.206;11.550;2022-08-19T07:12:03;95281.28;;;21.64;74.28
6218;BME280;3142;48.206;11.550;2022-08-19T07:14:32;95285.03;;;21.63;74.47
6218;BME280;3142;48.206;11.550;2022-08-19T07:17:01;95281.53;;;21.67;74.38
6218;BME280;3142;48.206;11.550;2022-08-19T07:19:29;95283.13;;;21.68;74.44
6218;BME280;3142;48.206;11.550;2022-08-19T07:21:57;95277.81;;;21.68;74.49
6218;BME280;3142;48.206;11.550;2022-08-19T07:24:25;95270.31;;;21.70;74.66
6218;BME280;3142;48.206;11.550;2022-08-19T07:26:53;95256.44;;;21.73;74.52
6218;BME280;3142;48.206;11.550;2022-08-19T07:29:22;95263.03;;;21.81;74.86
6218;BME280;3142;48.206;11.550;2022-08-19T07:31:50;95247.50;;;21.88;75.13
6218;BME280;3142;48.206;11.550;2022-08-19T07:34:18;95247.91;;;22.00;75.09
6218;BME280;3142;48.206;11.550;2022-08-19T07:36:46;95246.56;;;22.08;74.95
6218;BME280;3142;48.206;11.550;2022-08-19T07:39:17;95248.13;;;22.04;75.20
6218;BME280;3142;48.206;11.550;2022-08-19T07:41:44;95240.28;;;22.17;75.18
6218;BME280;3142;48.206;11.550;2022-08-19T07:44:11;95241.25;;;22.27;74.81
6218;BME280;3142;48.206;11.550;2022-08-19T07:46:41;95240.19;;;22.28;74.50
6218;BME280;3142;48.206;11.550;2022-08-19T07:49:09;95247.44;;;22.22;74.58
6218;BME280;3142;48.206;11.550;2022-08-19T07:51:47;95250.13;;;22.22;74.61
6218;BME280;3142;48.206;11.550;2022-08-19T07:54:14;95254.69;;;22.16;74.96
6218;BME280;3142;48.206;11.550;2022-08-19T07:56:40;95254.97;;;22.15;75.00
6218;BME280;3142;48.206;11.550;2022-08-19T07:59:07;95247.00;;;22.15;75.07
6218;BME280;3142;48.206;11.550;2022-08-19T08:01:34;95263.72;;;22.21;75.34
6218;BME280;3142;48.206;11.550;2022-08-19T08:04:01;95267.13;;;22.26;75.23
6218;BME280;3142;48.206;11.550;2022-08-19T08:06:46;95269.91;;;22.16;75.49
6218;BME280;3142;48.206;11.550;2022-08-19T08:09:32;95275.06;;;22.07;75.67
6218;BME280;3142;48.206;11.550;2022-08-19T08:12:02;95268.38;;;22.05;75.81
6218;BME280;3142;48.206;11.550;2022-08-19T08:14:32;95267.59;;;22.04;75.53
6218;BME280;3142;48.206;11.550;2022-08-19T08:17:01;95265.22;;;22.03;75.38
6218;BME280;3142;48.206;11.550;2022-08-19T08:19:28;95262.03;;;22.01;75.57
6218;BME280;3142;48.206;11.550;2022-08-19T08:21:57;95261.81;;;21.97;75.31
6218;BME280;3142;48.206;11.550;2022-08-19T08:24:25;95271.47;;;21.93;75.34
6218;BME280;3142;48.206;11.550;2022-08-19T08:26:52;95274.66;;;21.90;75.30
6218;BME280;3142;48.206;11.550;2022-08-19T08:29:19;95273.41;;;21.82;75.62
6218;BME280;3142;48.206;11.550;2022-08-19T08:31:46;95279.56;;;21.78;75.48
6218;BME280;3142;48.206;11.550;2022-08-19T08:34:13;95275.00;;;21.83;75.69
6218;BME280;3142;48.206;11.550;2022-08-19T08:36:44;95275.50;;;21.85;75.55
6218;BME280;3142;48.206;11.550;2022-08-19T08:39:13;95281.13;;;21.84;75.76
6218;BME280;3142;48.206;11.550;2022-08-19T08:41:44;95283.03;;;21.78;75.84
6218;BME280;3142;48.206;11.550;2022-08-19T08:44:17;95287.81;;;21.81;75.66
6218;BME280;3142;48.206;11.550;2022-08-19T08:46:47;95296.59;;;21.82;75.65
6218;BME280;3142;48.206;11.550;2022-08-19T08:49:24;95291.50;;;21.85;75.56
6218;BME280;3142;48.206;11.550;2022-08-19T08:51:57;95299.72;;;21.89;75.49
6218;BME280;3142;48.206;11.550;2022-08-19T08:54:32;95301.59;;;21.88;74.85
6218;BME280;3142;48.206;11.550;2022-08-19T08:56:59;95306.69;;;21.85;75.59
6218;BME280;3142;48.206;11.550;2022-08-19T08:59:28;95302.00;;;21.72;75.97
6218;BME280;3142;48.206;11.550;2022-08-19T09:01:57;95305.41;;;21.77;75.86
6218;BME280;3142;48.206;11.550;2022-08-19T09:04:24;95305.13;;;21.79;76.02
6218;BME280;3142;48.206;11.550;2022-08-19T09:06:54;95309.16;;;21.76;76.03
6218;BME280;3142;48.206;11.550;2022-08-19T09:09:31;95311.81;;;21.76;75.85
6218;BME280;3142;48.206;11.550;2022-08-19T09:12:06;95315.13;;;21.63;76.09
6218;BME280;3142;48.206;11.550;2022-08-19T09:14:41;95312.16;;;21.65;76.61
6218;BME280;3142;48.206;11.550;2022-08-19T09:17:12;95310.84;;;21.67;76.56
6218;BME280;3142;48.206;11.550;2022-08-19T09:19:49;95309.19;;;21.71;76.64
6218;BME280;3142;48.206;11.550;2022-08-19T09:22:16;95310.50;;;21.74;76.62
6218;BME280;3142;48.206;11.550;2022-08-19T09:24:48;95311.31;;;21.74;76.42
6218;BME280;3142;48.206;11.550;2022-08-19T09:27:15;95317.13;;;21.76;76.50
6218;BME280;3142;48.206;11.550;2022-08-19T09:29:42;95314.75;;;21.75;76.36
6218;BME280;3142;48.206;11.550;2022-08-19T09:32:08;95314.53;;;21.71;76.82
6218;BME280;3142;48.206;11.550;2022-08-19T09:34:35;95315.59;;;21.70;76.93
6218;BME280;3142;48.206;11.550;2022-08-19T09:37:01;95315.88;;;21.69;77.05
6218;BME280;3142;48.206;11.550;2022-08-19T09:39:28;95318.84;;;21.67;76.97
6218;BME280;3142;48.206;11.550;2022-08-19T09:41:57;95314.59;;;21.66;77.04
6218;BME280;3142;48.206;11.550;2022-08-19T09:44:23;95314.59;;;21.66;76.73
6218;BME280;3142;48.206;11.550;2022-08-19T09:46:50;95314.59;;;21.66;77.01
6218;BME280;3142;48.206;11.550;2022-08-19T09:49:17;95317.47;;;21.70;76.98
6218;BME280;3142;48.206;11.550;2022-08-19T09:51:45;95312.66;;;21.72;76.96
6218;BME280;3142;48.206;11.550;2022-08-19T09:54:14;95302.50;;;21.74;76.92
6218;BME280;3142;48.206;11.550;2022-08-19T09:56:40;95304.34;;;21.78;76.94
6218;BME280;3142;48.206;11.550;2022-08-19T09:59:08;95299.78;;;21.84;77.68
6218;BME280;3142;48.206;11.550;2022-08-19T10:01:37;95304.47;;;21.92;76.95
6218;BME280;3142;48.206;11.550;2022-08-19T10:04:04;95311.66;;;21.92;76.78
6218;BME280;3142;48.206;11.550;2022-08-19T10:06:35;95305.84;;;21.89;77.18
6218;BME280;3142;48.206;11.550;2022-08-19T10:09:03;95313.53;;;21.91;77.20
6218;BME280;3142;48.206;11.550;2022-08-19T10:11:31;95314.34;;;21.92;77.35
6218;BME280;3142;48.206;11.550;2022-08-19T10:13:57;95319.72;;;21.86;77.60
6218;BME280;3142;48.206;11.550;2022-08-19T10:16:26;95322.16;;;21.83;77.79
6218;BME280;3142;48.206;11.550;2022-08-19T10:18:53;95321.03;;;21.89;78.14
6218;BME280;3142;48.206;11.550;2022-08-19T10:21:22;95326.84;;;21.96;78.24
6218;BME280;3142;48.206;11.550;2022-08-19T10:23:50;95326.78;;;22.01;78.42
6218;BME280;3142;48.206;11.550;2022-08-19T10:26:19;95315.50;;;22.14;77.89
6218;BME280;3142;48.206;11.550;2022-08-19T10:28:46;95315.91;;;22.27;77.91
6218;BME280;3142;48.206;11.550;2022-08-19T10:31:15;95309.41;;;22.33;77.74
6218;BME280;3142;48.206;11.550;2022-08-19T10:33:43;95311.84;;;22.34;77.80
6218;BME280;3142;48.206;11.550;2022-08-19T10:36:12;95311.69;;;22.44;77.25
6218;BME280;3142;48.206;11.550;2022-08-19T10:38:40;95320.16;;;22.75;75.89
6218;BME280;3142;48.206;11.550;2022-08-19T10:41:08;95315.31;;;23.20;74.74
6218;BME280;3142;48.206;11.550;2022-08-19T10:43:35;95308.97;;;23.86;72.72
6218;BME280;3142;48.206;11.550;2022-08-19T10:46:04;95315.75;;;24.11;72.06
6218;BME280;3142;48.206;11.550;2022-08-19T10:48:31;95316.41;;;24.63;70.46
6218;BME280;3142;48.206;11.550;2022-08-19T10:50:58;95309.28;;;24.72;69.35
6218;BME280;3142;48.206;11.550;2022-08-19T10:53:42;95313.91;;;24.67;68.61
6218;BME280;3142;48.206;11.550;2022-08-19T10:56:09;95313.13;;;24.52;68.88
6218;BME280;3142;48.206;11.550;2022-08-19T10:58:53;95310.91;;;24.13;70.06
6218;BME280;3142;48.206;11.550;2022-08-19T11:01:21;95313.81;;;23.84;70.18
6218;BME280;3142;48.206;11.550;2022-08-19T11:03:48;95305.66;;;23.57;70.61
6218;BME280;3142;48.206;11.550;2022-08-19T11:06:16;95308.50;;;23.28;71.93
6218;BME280;3142;48.206;11.550;2022-08-19T11:08:42;95301.88;;;23.25;72.04
6218;BME280;3142;48.206;11.550;2022-08-19T11:11:10;95303.34;;;23.18;71.81
6218;BME280;3142;48.206;11.550;2022-08-19T11:13:38;95302.69;;;23.07;71.62
6218;BME280;3142;48.206;11.550;2022-08-19T11:16:07;95297.97;;;22.99;71.84
6218;BME280;3142;48.206;11.550;2022-08-19T11:18:36;95299.22;;;23.07;71.76
6218;BME280;3142;48.206;11.550;2022-08-19T11:21:08;95287.44;;;23.26;71.78
6218;BME280;3142;48.206;11.550;2022-08-19T11:23:36;95277.50;;;23.32;70.89
6218;BME280;3142;48.206;11.550;2022-08-19T11:26:03;95279.09;;;23.33;70.66
6218;BME280;3142;48.206;11.550;2022-08-19T11:28:29;95289.44;;;23.53;69.76
6218;BME280;3142;48.206;11.550;2022-08-19T11:30:56;95293.50;;;23.51;69.61
6218;BME280;3142;48.206;11.550;2022-08-19T11:33:22;95287.56;;;23.54;69.97
6218;BME280;3142;48.206;11.550;2022-08-19T11:35:51;95292.84;;;23.40;69.81
6218;BME280;3142;48.206;11.550;2022-08-19T11:38:17;95301.38;;;23.23;71.27
6218;BME280;3142;48.206;11.550;2022-08-19T11:40:54;95305.94;;;23.23;71.40
6218;BME280;3142;48.206;11.550;2022-08-19T11:43:20;95300.66;;;23.18;71.51
6218;BME280;3142;48.206;11.550;2022-08-19T11:45:46;95303.59;;;23.16;71.10
6218;BME280;3142;48.206;11.550;2022-08-19T11:48:14;95302.59;;;23.12;71.29
6218;BME280;3142;48.206;11.550;2022-08-19T11:50:40;95304.06;;;23.04;71.18
6218;BME280;3142;48.206;11.550;2022-08-19T11:53:08;95300.84;;;23.02;71.02
6218;BME280;3142;48.206;11.550;2022-08-19T11:55:36;95297.41;;;23.02;71.09
6218;BME280;3142;48.206;11.550;2022-08-19T11:58:05;95298.47;;;23.01;71.59
6218;BME280;3142;48.206;11.550;2022-08-19T12:00:33;95298.72;;;23.04;71.70
6218;BME280;3142;48.206;11.550;2022-08-19T12:03:00;95300.50;;;23.09;71.69
6218;BME280;3142;48.206;11.550;2022-08-19T12:05:27;95302.59;;;23.12;71.28
6218;BME280;3142;48.206;11.550;2022-08-19T12:07:53;95301.03;;;23.11;71.37
6218;BME280;3142;48.206;11.550;2022-08-19T12:10:21;95308.44;;;23.14;71.41
6218;BME280;3142;48.206;11.550;2022-08-19T12:12:47;95303.09;;;23.14;71.37
6218;BME280;3142;48.206;11.550;2022-08-19T12:15:15;95297.63;;;23.24;70.94
6218;BME280;3142;48.206;11.550;2022-08-19T12:17:42;95297.34;;;23.26;70.63
6218;BME280;3142;48.206;11.550;2022-08-19T12:20:10;95294.97;;;23.24;70.58
6218;BME280;3142;48.206;11.550;2022-08-19T12:22:39;95300.75;;;23.31;70.70
6218;BME280;3142;48.206;11.550;2022-08-19T12:25:07;95307.56;;;23.38;70.13
6218;BME280;3142;48.206;11.550;2022-08-19T12:27:34;95316.03;;;23.45;70.14
6218;BME280;3142;48.206;11.550;2022-08-19T12:30:01;95321.44;;;23.40;69.81
6218;BME280;3142;48.206;11.550;2022-08-19T12:32:29;95325.78;;;23.35;69.07
6218;BME280;3142;48.206;11.550;2022-08-19T12:34:55;95326.34;;;23.32;69.02
6218;BME280;3142;48.206;11.550;2022-08-19T12:37:22;95323.97;;;23.31;68.62
6218;BME280;3142;48.206;11.550;2022-08-19T12:39:48;95316.81;;;23.26;68.73
6218;BME280;3142;48.206;11.550;2022-08-19T12:42:15;95316.53;;;23.28;68.17
6218;BME280;3142;48.206;11.550;2022-08-19T12:44:43;95322.22;;;23.40;67.68
6218;BME280;3142;48.206;11.550;2022-08-19T12:47:12;95323.66;;;23.51;67.43
6218;BME280;3142;48.206;11.550;2022-08-19T12:49:40;95320.50;;;23.49;67.72
6218;BME280;3142;48.206;11.550;2022-08-19T12:52:08;95325.38;;;23.42;67.85
6218;BME280;3142;48.206;11.550;2022-08-19T12:54:35;95332.91;;;23.40;67.81
6218;BME280;3142;48.206;11.550;2022-08-19T12:57:05;95329.66;;;23.43;68.06
6218;BME280;3142;48.206;11.550;2022-08-19T12:59:33;95330.88;;;23.51;68.42
6218;BME280;3142;48.206;11.550;2022-08-19T13:01:59;95327.72;;;23.68;68.02
6218;BME280;3142;48.206;11.550;2022-08-19T13:04:26;95334.78;;;23.77;68.10
6218;BME280;3142;48.206;11.550;2022-08-19T13:06:54;95336.44;;;23.73;68.20
6218;BME280;3142;48.206;11.550;2022-08-19T13:09:20;95326.84;;;23.72;67.35
6218;BME280;3142;48.206;11.550;2022-08-19T13:11:47;95326.56;;;23.74;67.28
6218;BME280;3142;48.206;11.550;2022-08-19T13:14:13;95329.03;;;23.84;67.43
6218;BME280;3142;48.206;11.550;2022-08-19T13:16:39;95326.59;;;23.87;67.07